createdAt,value
2018-02-01T00:00:56.740Z,6.54
2018-02-01T00:03:24.248Z,6.54
2018-02-01T00:05:51.755Z,6.63
2018-02-01T00:08:19.262Z,6.54
2018-02-01T00:10:46.792Z,6.53
2018-02-01T00:13:14.297Z,6.47
2018-02-01T00:15:41.814Z,6.46
2018-02-01T00:18:09.329Z,6.41
2018-02-01T00:20:36.848Z,6.42
2018-02-01T00:23:04.373Z,6.40
2018-02-01T00:25:31.880Z,6.32
2018-02-01T00:27:59.409Z,6.36
2018-02-01T00:30:26.920Z,6.37
2018-02-01T00:32:54.438Z,6.24
2018-02-01T00:35:21.947Z,6.35
2018-02-01T00:37:49.494Z,6.20
2018-02-01T00:40:17.005Z,6.20
2018-02-01T00:42:44.507Z,6.16
2018-02-01T00:45:12.023Z,6.09
2018-02-01T00:47:39.530Z,6.14
2018-02-01T00:50:07.046Z,6.12
2018-02-01T00:52:34.557Z,6.09
2018-02-01T00:55:02.059Z,6.03
2018-02-01T00:57:29.594Z,6.05
2018-02-01T00:59:57.100Z,6.07
2018-02-01T01:02:24.610Z,5.95
2018-02-01T01:04:52.113Z,5.98
2018-02-01T01:07:19.628Z,5.92
2018-02-01T01:09:47.136Z,5.95
2018-02-01T01:12:14.669Z,5.94
2018-02-01T01:14:42.185Z,5.88
2018-02-01T01:17:09.697Z,5.85
2018-02-01T01:19:37.220Z,5.86
2018-02-01T01:22:04.738Z,5.73
2018-02-01T01:24:32.261Z,5.78
2018-02-01T01:26:59.765Z,5.71
2018-02-01T01:29:27.284Z,5.71
2018-02-01T01:31:54.798Z,5.70
2018-02-01T01:34:22.301Z,5.65
2018-02-01T01:36:49.802Z,5.69
2018-02-01T01:39:17.319Z,5.68
2018-02-01T01:41:44.846Z,5.59
2018-02-01T01:44:12.374Z,5.56
2018-02-01T01:46:39.898Z,5.60
2018-02-01T01:49:07.405Z,5.62
2018-02-01T01:51:34.913Z,5.49
2018-02-01T01:54:02.422Z,5.51
2018-02-01T01:56:29.933Z,5.55
2018-02-01T01:58:57.445Z,5.47
2018-02-01T02:01:24.944Z,5.54
2018-02-01T02:03:52.444Z,5.42
2018-02-01T02:06:19.962Z,5.42
2018-02-01T02:08:47.460Z,5.40
2018-02-01T02:11:14.974Z,5.43
2018-02-01T02:13:42.478Z,5.35
2018-02-01T02:16:09.986Z,5.35
2018-02-01T02:18:37.489Z,5.40
2018-02-01T02:21:05.014Z,5.34
2018-02-01T02:23:32.545Z,5.40
2018-02-01T02:26:00.045Z,5.40
2018-02-01T02:28:27.561Z,5.43
2018-02-01T02:30:55.085Z,5.31
2018-02-01T02:33:22.584Z,5.35
2018-02-01T02:35:50.106Z,5.34
2018-02-01T02:38:17.618Z,5.34
2018-02-01T02:40:45.123Z,5.32
2018-02-01T02:43:12.633Z,5.31
2018-02-01T02:45:40.135Z,5.36
2018-02-01T02:48:07.647Z,5.36
2018-02-01T02:50:35.157Z,5.29
2018-02-01T02:53:02.659Z,5.30
2018-02-01T02:55:30.166Z,5.34
2018-02-01T02:57:57.685Z,5.25
2018-02-01T03:00:25.192Z,5.19
2018-02-01T03:02:52.702Z,5.24
2018-02-01T03:05:20.203Z,5.20
2018-02-01T03:07:47.709Z,5.16
2018-02-01T03:10:15.221Z,5.19
2018-02-01T03:12:42.759Z,5.12
2018-02-01T03:15:10.281Z,5.15
2018-02-01T03:17:37.785Z,5.11
2018-02-01T03:20:05.301Z,5.09
2018-02-01T03:22:32.800Z,5.06
2018-02-01T03:25:00.308Z,5.11
2018-02-01T03:27:27.806Z,5.14
2018-02-01T03:29:55.376Z,5.01
2018-02-01T03:32:22.851Z,5.01
2018-02-01T03:34:50.359Z,5.00
2018-02-01T03:37:17.865Z,4.99
2018-02-01T03:39:45.363Z,5.00
2018-02-01T03:42:12.886Z,5.01
2018-02-01T03:44:40.407Z,5.03
2018-02-01T03:47:07.914Z,5.06
2018-02-01T03:49:35.421Z,5.03
2018-02-01T03:52:02.927Z,5.05
2018-02-01T03:54:30.434Z,5.06
2018-02-01T03:56:57.956Z,5.02
2018-02-01T03:59:25.465Z,5.06
2018-02-01T04:01:52.970Z,5.00
2018-02-01T04:04:20.479Z,5.01
2018-02-01T04:06:47.997Z,4.91
2018-02-01T04:09:15.500Z,4.92
2018-02-01T04:11:43.015Z,4.92
2018-02-01T04:14:10.508Z,4.87
2018-02-01T04:16:38.092Z,4.85
2018-02-01T04:19:05.616Z,4.87
2018-02-01T04:21:33.133Z,4.80
2018-02-01T04:24:00.638Z,4.82
2018-02-01T04:26:28.154Z,4.81
2018-02-01T04:28:55.658Z,4.89
2018-02-01T04:31:23.160Z,4.83
2018-02-01T04:33:50.670Z,4.88
2018-02-01T04:36:18.174Z,4.89
2018-02-01T04:38:45.686Z,4.90
2018-02-01T04:41:13.187Z,4.94
2018-02-01T04:43:40.710Z,4.89
2018-02-01T04:46:08.216Z,4.94
2018-02-01T04:48:35.721Z,4.90
2018-02-01T04:51:03.226Z,4.93
2018-02-01T04:53:30.737Z,4.93
2018-02-01T04:55:58.244Z,4.89
2018-02-01T04:58:25.756Z,4.90
2018-02-01T05:00:53.257Z,4.90
2018-02-01T05:03:20.777Z,4.88
2018-02-01T05:05:48.290Z,4.92
2018-02-01T05:08:15.792Z,4.92
2018-02-01T05:10:43.293Z,4.91
2018-02-01T05:13:10.806Z,4.91
2018-02-01T05:15:38.309Z,4.89
2018-02-01T05:18:05.828Z,4.90
2018-02-01T05:20:33.328Z,4.92
2018-02-01T05:23:00.837Z,4.89
2018-02-01T05:25:28.337Z,4.95
2018-02-01T05:27:55.844Z,4.91
2018-02-01T05:30:23.345Z,4.90
2018-02-01T05:32:50.863Z,4.88
2018-02-01T05:35:18.372Z,4.93
2018-02-01T05:37:45.879Z,4.85
2018-02-01T05:40:13.386Z,4.79
2018-02-01T05:42:40.905Z,4.83
2018-02-01T05:45:08.426Z,4.83
2018-02-01T05:47:35.931Z,4.87
2018-02-01T05:50:03.435Z,4.89
2018-02-01T05:52:30.948Z,4.82
2018-02-01T05:54:58.445Z,4.78
2018-02-01T05:57:25.936Z,4.77
2018-02-01T05:59:53.433Z,4.73
2018-02-01T06:02:20.944Z,4.77
2018-02-01T06:04:48.445Z,4.77
2018-02-01T06:07:15.948Z,4.74
2018-02-01T06:09:43.452Z,4.73
2018-02-01T06:12:10.954Z,4.68
2018-02-01T06:14:38.465Z,4.67
2018-02-01T06:17:05.976Z,4.64
2018-02-01T06:19:33.485Z,4.58
2018-02-01T06:22:00.990Z,4.62
2018-02-01T06:24:28.551Z,4.57
2018-02-01T06:26:56.058Z,4.57
2018-02-01T06:29:23.568Z,4.53
2018-02-01T06:31:51.072Z,4.46
2018-02-01T06:34:18.571Z,4.51
2018-02-01T06:36:46.082Z,4.38
2018-02-01T06:39:13.587Z,4.40
2018-02-01T06:41:41.112Z,4.39
2018-02-01T06:44:08.630Z,4.34
2018-02-01T06:46:36.131Z,4.28
2018-02-01T06:49:03.638Z,4.26
2018-02-01T06:51:31.150Z,4.24
2018-02-01T06:53:58.667Z,4.27
2018-02-01T06:56:26.170Z,4.34
2018-02-01T06:58:53.700Z,4.40
2018-02-01T07:01:27.720Z,4.35
2018-02-01T07:03:55.226Z,4.27
2018-02-01T07:06:22.770Z,4.19
2018-02-01T07:08:50.264Z,4.21
2018-02-01T07:11:17.833Z,4.20
2018-02-01T07:13:45.350Z,4.18
2018-02-01T07:16:12.869Z,4.21
2018-02-01T07:18:40.389Z,4.20
2018-02-01T07:21:07.909Z,4.24
2018-02-01T07:23:35.420Z,4.24
2018-02-01T07:26:02.924Z,4.16
2018-02-01T07:28:30.430Z,4.22
2018-02-01T07:30:57.946Z,4.16
2018-02-01T07:33:25.447Z,4.18
2018-02-01T07:35:52.949Z,4.16
2018-02-01T07:38:20.465Z,4.20
2018-02-01T07:40:47.981Z,4.19
2018-02-01T07:43:15.489Z,4.22
2018-02-01T07:45:43.320Z,4.34
2018-02-01T07:48:10.833Z,4.41
2018-02-01T07:50:38.333Z,4.51
2018-02-01T07:53:05.831Z,4.51
2018-02-01T07:55:33.326Z,4.48
2018-02-01T07:58:00.829Z,4.56
2018-02-01T08:00:28.333Z,4.55
2018-02-01T08:02:55.837Z,4.68
2018-02-01T08:05:23.344Z,4.65
2018-02-01T08:07:50.852Z,4.69
2018-02-01T08:10:18.366Z,4.74
2018-02-01T08:12:45.868Z,4.90
2018-02-01T08:15:13.381Z,4.87
2018-02-01T08:17:40.883Z,4.73
2018-02-01T08:20:08.382Z,4.96
2018-02-01T08:22:35.894Z,5.03
2018-02-01T08:25:03.394Z,5.24
2018-02-01T08:27:30.893Z,5.31
2018-02-01T08:29:58.501Z,5.48
2018-02-01T08:32:25.996Z,5.66
2018-02-01T08:34:53.531Z,5.74
2018-02-01T08:37:21.073Z,5.81
2018-02-01T08:39:48.650Z,6.35
2018-02-01T08:42:16.150Z,6.17
2018-02-01T08:44:43.671Z,6.17
2018-02-01T08:47:11.173Z,6.36
2018-02-01T08:49:38.683Z,6.29
2018-02-01T08:52:06.182Z,6.33
2018-02-01T08:54:33.686Z,6.38
2018-02-01T08:57:01.191Z,6.35
2018-02-01T08:59:28.700Z,6.24
2018-02-01T09:01:56.202Z,6.74
2018-02-01T09:04:23.705Z,6.41
2018-02-01T09:06:51.221Z,6.70
2018-02-01T09:09:18.722Z,6.77
2018-02-01T09:11:46.218Z,6.80
2018-02-01T09:14:13.742Z,6.74
2018-02-01T09:16:41.241Z,7.15
2018-02-01T09:19:08.749Z,7.03
2018-02-01T09:21:36.303Z,7.01
2018-02-01T09:24:03.822Z,7.03
2018-02-01T09:26:31.349Z,6.82
2018-02-01T09:28:58.864Z,7.01
2018-02-01T09:31:26.382Z,7.30
2018-02-01T09:33:54.264Z,7.45
2018-02-01T09:36:21.787Z,7.90
2018-02-01T09:38:49.296Z,8.04
2018-02-01T09:41:16.804Z,8.20
2018-02-01T09:43:44.313Z,8.44
2018-02-01T09:46:11.812Z,8.87
2018-02-01T09:48:39.323Z,9.00
2018-02-01T09:51:06.835Z,9.81
2018-02-01T09:53:34.345Z,9.72
2018-02-01T09:56:01.851Z,10.06
2018-02-01T09:58:29.368Z,10.65
2018-02-01T10:00:56.902Z,10.21
2018-02-01T10:03:24.410Z,9.82
2018-02-01T10:05:51.918Z,10.24
2018-02-01T10:08:19.422Z,10.24
2018-02-01T10:10:46.935Z,10.73
2018-02-01T10:13:14.431Z,10.70
2018-02-01T10:15:41.941Z,10.40
2018-02-01T10:18:09.445Z,11.02
2018-02-01T10:20:36.956Z,11.64
2018-02-01T10:23:04.472Z,11.07
2018-02-01T10:25:31.972Z,10.95
2018-02-01T10:27:59.501Z,11.48
2018-02-01T10:30:27.016Z,11.01
2018-02-01T10:32:54.516Z,11.04
2018-02-01T10:35:22.029Z,10.45
2018-02-01T10:37:49.536Z,10.55
2018-02-01T10:40:17.054Z,10.38
2018-02-01T10:42:44.551Z,10.10
2018-02-01T10:45:12.073Z,9.75
2018-02-01T10:47:39.569Z,9.78
2018-02-01T10:50:07.072Z,9.57
2018-02-01T10:52:34.579Z,9.41
2018-02-01T10:55:02.081Z,9.44
2018-02-01T10:57:29.581Z,9.03
2018-02-01T10:59:57.090Z,9.09
2018-02-01T11:02:24.620Z,9.15
2018-02-01T11:04:52.126Z,8.29
2018-02-01T11:07:19.621Z,8.40
2018-02-01T11:09:47.147Z,8.40
2018-02-01T11:12:14.657Z,8.46
2018-02-01T11:14:42.161Z,8.03
2018-02-01T11:17:09.668Z,8.14
2018-02-01T11:19:37.185Z,8.34
2018-02-01T11:22:04.710Z,8.15
2018-02-01T11:24:32.227Z,8.37
2018-02-01T11:26:59.727Z,8.24
2018-02-01T11:29:27.240Z,8.12
2018-02-01T11:31:54.759Z,7.96
2018-02-01T11:34:22.257Z,7.88
2018-02-01T11:36:49.761Z,7.95
2018-02-01T11:39:17.272Z,8.31
2018-02-01T11:41:44.779Z,8.05
2018-02-01T11:44:12.282Z,8.20
2018-02-01T11:46:39.797Z,8.02
2018-02-01T11:49:07.301Z,8.03
2018-02-01T11:51:34.805Z,7.69
2018-02-01T11:54:02.308Z,7.59
2018-02-01T11:56:29.822Z,7.43
2018-02-01T11:58:57.326Z,7.72
2018-02-01T12:01:24.821Z,7.77
2018-02-01T12:03:52.327Z,7.48
2018-02-01T12:06:19.824Z,7.75
2018-02-01T12:08:47.390Z,7.67
2018-02-01T12:11:14.894Z,7.47
2018-02-01T12:13:42.411Z,7.39
2018-02-01T12:16:09.924Z,7.55
2018-02-01T12:18:37.456Z,7.54
2018-02-01T12:21:05.437Z,7.29
2018-02-01T12:23:32.949Z,7.36
2018-02-01T12:26:00.466Z,7.39
2018-02-01T12:28:27.978Z,7.46
2018-02-01T12:30:55.488Z,7.61
2018-02-01T12:33:22.995Z,7.43
2018-02-01T12:35:50.499Z,7.37
2018-02-01T12:38:17.996Z,7.45
2018-02-01T12:40:45.493Z,7.58
2018-02-01T12:43:13.015Z,7.53
2018-02-01T12:45:40.520Z,7.40
2018-02-01T12:48:08.020Z,7.46
2018-02-01T12:50:35.536Z,7.37
2018-02-01T12:53:03.045Z,7.33
2018-02-01T12:55:30.541Z,7.38
2018-02-01T12:57:58.051Z,7.32
2018-02-01T13:00:25.564Z,7.31
2018-02-01T13:02:53.066Z,7.16
2018-02-01T13:05:20.573Z,7.25
2018-02-01T13:07:48.066Z,7.28
2018-02-01T13:10:15.564Z,7.18
2018-02-01T13:12:43.075Z,7.10
2018-02-01T13:15:10.584Z,7.08
2018-02-01T13:17:38.090Z,7.09
2018-02-01T13:20:05.637Z,7.11
2018-02-01T13:22:33.153Z,7.06
2018-02-01T13:25:00.671Z,7.14
2018-02-01T13:27:28.189Z,7.17
2018-02-01T13:29:55.701Z,7.15
2018-02-01T13:32:23.214Z,7.15
2018-02-01T13:34:50.716Z,7.07
2018-02-01T13:37:18.221Z,6.97
2018-02-01T13:39:45.737Z,6.99
2018-02-01T13:42:13.251Z,7.12
2018-02-01T13:44:40.767Z,7.09
2018-02-01T13:47:08.279Z,7.09
2018-02-01T13:49:35.779Z,6.91
2018-02-01T13:52:03.276Z,6.83
2018-02-01T13:54:30.775Z,6.96
2018-02-01T13:56:58.276Z,6.92
2018-02-01T13:59:25.778Z,6.77
2018-02-01T14:01:53.276Z,6.92
2018-02-01T14:04:20.783Z,7.00
2018-02-01T14:06:48.296Z,7.09
2018-02-01T14:09:15.797Z,7.07
2018-02-01T14:11:43.307Z,7.10
2018-02-01T14:14:10.812Z,7.21
2018-02-01T14:16:38.312Z,7.25
2018-02-01T14:19:05.817Z,7.27
2018-02-01T14:21:33.315Z,7.32
2018-02-01T14:24:00.846Z,7.39
2018-02-01T14:26:28.348Z,7.31
2018-02-01T14:28:55.844Z,7.30
2018-02-01T14:31:23.348Z,7.24
2018-02-01T14:33:50.844Z,7.16
2018-02-01T14:36:18.348Z,7.18
2018-02-01T14:38:45.845Z,7.15
2018-02-01T14:41:13.346Z,7.15
2018-02-01T14:43:40.872Z,7.13
2018-02-01T14:46:08.369Z,7.05
2018-02-01T14:48:35.875Z,7.03
2018-02-01T14:51:03.405Z,6.90
2018-02-01T14:53:30.911Z,6.86
2018-02-01T14:55:58.609Z,6.90
2018-02-01T14:58:26.114Z,6.82
2018-02-01T15:00:53.612Z,6.79
2018-02-01T15:03:21.117Z,6.71
2018-02-01T15:05:48.630Z,6.61
2018-02-01T15:08:16.139Z,6.54
2018-02-01T15:10:43.643Z,6.47
2018-02-01T15:13:11.146Z,6.40
2018-02-01T15:15:38.652Z,6.38
2018-02-01T15:18:06.153Z,6.28
2018-02-01T15:20:33.660Z,6.27
2018-02-01T15:23:01.173Z,6.28
2018-02-01T15:25:28.675Z,6.26
2018-02-01T15:27:56.179Z,6.28
2018-02-01T15:30:23.685Z,6.28
2018-02-01T15:32:51.194Z,6.28
2018-02-01T15:35:18.704Z,6.25
2018-02-01T15:37:46.206Z,6.30
2018-02-01T15:40:13.733Z,6.24
2018-02-01T15:42:41.254Z,6.24
2018-02-01T15:45:08.760Z,6.21
2018-02-01T15:47:36.265Z,6.27
2018-02-01T15:50:03.784Z,6.17
2018-02-01T15:52:36.483Z,6.13
2018-02-01T15:55:04.028Z,6.13
2018-02-01T15:57:31.553Z,6.00
2018-02-01T15:59:59.062Z,5.94
2018-02-01T16:02:26.564Z,5.97
2018-02-01T16:04:54.078Z,5.88
2018-02-01T16:07:21.607Z,5.83
2018-02-01T16:09:49.100Z,5.77
2018-02-01T16:12:16.606Z,5.77
2018-02-01T16:14:44.110Z,5.69
2018-02-01T16:17:11.617Z,5.71
2018-02-01T16:19:39.118Z,5.65
2018-02-01T16:22:06.620Z,5.58
2018-02-01T16:24:34.123Z,5.58
2018-02-01T16:27:01.679Z,5.55
2018-02-01T16:29:29.184Z,5.53
2018-02-01T16:31:56.689Z,5.50
2018-02-01T16:34:25.008Z,5.49
2018-02-01T16:36:52.520Z,5.49
2018-02-01T16:39:20.016Z,5.41
2018-02-01T16:41:47.512Z,5.42
2018-02-01T16:44:15.026Z,5.38
2018-02-01T16:46:42.532Z,5.33
2018-02-01T16:49:10.055Z,5.34
2018-02-01T16:51:37.593Z,5.28
2018-02-01T16:54:05.100Z,5.17
2018-02-01T16:56:32.600Z,5.14
2018-02-01T16:59:00.097Z,5.10
2018-02-01T17:01:27.605Z,5.05
2018-02-01T17:03:55.116Z,5.00
2018-02-01T17:06:22.621Z,4.93
2018-02-01T17:08:50.127Z,4.91
2018-02-01T17:11:17.634Z,4.82
2018-02-01T17:13:45.132Z,4.79
2018-02-01T17:16:12.639Z,4.74
2018-02-01T17:18:40.146Z,4.70
2018-02-01T17:21:07.656Z,4.67
2018-02-01T17:23:35.165Z,4.59
2018-02-01T17:26:02.673Z,4.55
2018-02-01T17:28:30.183Z,4.54
2018-02-01T17:30:57.690Z,4.50
2018-02-01T17:33:25.189Z,4.45
2018-02-01T17:35:52.688Z,4.44
2018-02-01T17:38:20.185Z,4.41
2018-02-01T17:40:47.769Z,4.35
2018-02-01T17:43:15.274Z,4.33
2018-02-01T17:45:42.800Z,4.31
2018-02-01T17:48:10.318Z,4.21
2018-02-01T17:50:37.817Z,4.20
2018-02-01T17:53:05.321Z,4.19
2018-02-01T17:55:32.822Z,4.15
2018-02-01T17:58:00.325Z,4.13
2018-02-01T18:00:27.837Z,4.09
2018-02-01T18:02:55.339Z,4.05
2018-02-01T18:05:23.039Z,4.02
2018-02-01T18:07:50.538Z,4.00
2018-02-01T18:10:18.054Z,3.98
2018-02-01T18:12:45.551Z,3.96
2018-02-01T18:15:13.054Z,3.92
2018-02-01T18:17:40.551Z,3.87
2018-02-01T18:20:08.054Z,3.85
2018-02-01T18:22:35.562Z,3.84
2018-02-01T18:25:03.070Z,3.82
2018-02-01T18:27:30.579Z,3.79
2018-02-01T18:29:58.100Z,3.78
2018-02-01T18:32:25.599Z,3.79
2018-02-01T18:34:53.099Z,3.77
2018-02-01T18:37:20.631Z,3.75
2018-02-01T18:39:48.141Z,3.75
2018-02-01T18:42:15.646Z,3.74
2018-02-01T18:44:43.139Z,3.70
2018-02-01T18:47:10.663Z,3.68
2018-02-01T18:49:38.274Z,3.64
2018-02-01T18:52:05.780Z,3.63
2018-02-01T18:54:33.327Z,3.63
2018-02-01T18:57:00.821Z,3.65
2018-02-01T18:59:28.329Z,3.60
2018-02-01T19:01:55.841Z,3.57
2018-02-01T19:04:23.346Z,3.54
2018-02-01T19:06:50.853Z,3.57
2018-02-01T19:09:18.366Z,3.53
2018-02-01T19:11:45.871Z,3.49
2018-02-01T19:14:13.367Z,3.50
2018-02-01T19:16:40.875Z,3.46
2018-02-01T19:19:08.580Z,3.44
2018-02-01T19:21:36.080Z,3.42
2018-02-01T19:24:03.584Z,3.38
2018-02-01T19:26:31.097Z,3.35
2018-02-01T19:28:58.605Z,3.33
2018-02-01T19:31:26.204Z,3.31
2018-02-01T19:33:53.782Z,3.25
2018-02-01T19:36:21.303Z,3.27
2018-02-01T19:38:48.822Z,3.26
2018-02-01T19:41:16.320Z,3.24
2018-02-01T19:43:43.856Z,3.21
2018-02-01T19:46:11.373Z,3.18
2018-02-01T19:48:38.904Z,3.17
2018-02-01T19:51:06.428Z,3.17
2018-02-01T19:53:33.932Z,3.10
2018-02-01T19:56:01.435Z,3.12
2018-02-01T19:58:28.948Z,3.09
2018-02-01T20:00:56.459Z,3.08
2018-02-01T20:03:23.971Z,3.05
2018-02-01T20:05:51.480Z,3.02
2018-02-01T20:08:19.016Z,3.01
2018-02-01T20:10:46.547Z,2.99
2018-02-01T20:13:14.055Z,2.97
2018-02-01T20:15:41.563Z,2.96
2018-02-01T20:18:09.075Z,2.94
2018-02-01T20:20:36.602Z,2.91
2018-02-01T20:23:04.114Z,2.87
2018-02-01T20:25:31.637Z,2.87
2018-02-01T20:27:59.255Z,2.86
2018-02-01T20:30:26.765Z,2.80
2018-02-01T20:32:54.282Z,2.83
2018-02-01T20:35:21.821Z,2.83
2018-02-01T20:37:49.345Z,2.79
2018-02-01T20:40:16.997Z,2.80
2018-02-01T20:42:46.857Z,2.78
2018-02-01T20:45:14.356Z,2.76
2018-02-01T20:47:41.860Z,2.75
2018-02-01T20:50:09.376Z,2.70
2018-02-01T20:52:37.073Z,2.68
2018-02-01T20:55:04.573Z,2.69
2018-02-01T20:57:32.068Z,2.68
2018-02-01T20:59:59.573Z,2.66
2018-02-01T21:02:27.116Z,2.66
2018-02-01T21:04:54.625Z,2.64
2018-02-01T21:07:22.120Z,2.61
2018-02-01T21:09:49.629Z,2.58
2018-02-01T21:12:17.161Z,2.55
2018-02-01T21:14:44.681Z,2.52
2018-02-01T21:17:12.191Z,2.52
2018-02-01T21:19:39.708Z,2.51
2018-02-01T21:22:07.221Z,2.46
2018-02-01T21:24:34.743Z,2.44
2018-02-01T21:27:02.364Z,2.46
2018-02-01T21:29:29.920Z,2.51
2018-02-01T21:31:57.413Z,2.54
2018-02-01T21:34:24.932Z,2.58
2018-02-01T21:36:52.425Z,2.58
2018-02-01T21:39:20.201Z,2.63
2018-02-01T21:41:47.741Z,2.61
2018-02-01T21:44:15.455Z,2.56
2018-02-01T21:46:42.960Z,2.54
2018-02-01T21:49:10.460Z,2.57
2018-02-01T21:51:37.960Z,2.53
2018-02-01T21:54:05.458Z,2.53
2018-02-01T21:56:32.964Z,2.51
2018-02-01T21:59:00.460Z,2.52
2018-02-01T22:01:27.962Z,2.54
2018-02-01T22:03:55.727Z,2.57
2018-02-01T22:06:23.557Z,2.57
2018-02-01T22:08:51.117Z,2.60
2018-02-01T22:11:18.669Z,2.55
2018-02-01T22:13:46.169Z,2.55
2018-02-01T22:16:13.725Z,2.56
2018-02-01T22:18:41.295Z,2.55
2018-02-01T22:21:08.816Z,2.56
2018-02-01T22:23:36.322Z,2.54
2018-02-01T22:26:03.820Z,2.51
2018-02-01T22:28:31.330Z,2.49
2018-02-01T22:30:58.858Z,2.53
2018-02-01T22:33:26.360Z,2.52
2018-02-01T22:35:53.872Z,2.51
2018-02-01T22:38:21.480Z,2.51
2018-02-01T22:40:48.999Z,2.53
2018-02-01T22:43:16.508Z,2.52
2018-02-01T22:45:44.070Z,2.50
2018-02-01T22:48:11.628Z,2.52
2018-02-01T22:50:39.127Z,2.53
2018-02-01T22:53:06.627Z,2.51
2018-02-01T22:55:34.153Z,2.51
2018-02-01T22:58:01.656Z,2.51
2018-02-01T23:00:29.156Z,2.49
2018-02-01T23:02:56.788Z,2.49
2018-02-01T23:05:24.279Z,2.49
2018-02-01T23:07:51.772Z,2.51
2018-02-01T23:10:19.302Z,2.52
2018-02-01T23:12:46.812Z,2.55
2018-02-01T23:15:14.370Z,2.56
2018-02-01T23:17:41.868Z,2.54
2018-02-01T23:20:09.373Z,2.54
2018-02-01T23:22:36.878Z,2.50
2018-02-01T23:25:04.417Z,2.47
2018-02-01T23:27:31.962Z,2.42
2018-02-01T23:29:59.493Z,2.45
2018-02-01T23:32:27.009Z,2.44
2018-02-01T23:34:54.569Z,2.44
2018-02-01T23:37:22.103Z,2.45
2018-02-01T23:39:49.596Z,2.42
2018-02-01T23:42:17.103Z,2.45
2018-02-01T23:44:44.640Z,2.45
2018-02-01T23:47:12.165Z,2.46
2018-02-01T23:49:39.708Z,2.50
2018-02-01T23:52:07.238Z,2.47
2018-02-01T23:54:34.834Z,2.45
2018-02-01T23:57:02.391Z,2.46
2018-02-01T23:59:29.962Z,2.42
